EDW27N LSZH-LPPD
Flight info
| Callsign | EDW27N |
|---|---|
| Flight time | 4h 9m |
| Altitude | 35000 |
| Route | VEBIT T50 ROTOS Z669 ULMES DCT VADAR DCT NINTU DCT MEBAK DCT REPSI DCT LERGA DCT MINSO DCT NARAK DCT AGN DCT PIPOR L866 PPN N976 DGO DCT NEA DCT ARDID DCT LAMDI DCT LUTAK/M076F360 DCT 36N020W DCT BEKUN DCT OMOBI |
| Aircraft | A320/M-SDE3FGHIRWY/LB1 |
Departure
| Time | 2026-04-26 18:13 |
|---|---|
| Airport | Zürich Airport (LSZH) |
Arrival
| Time | 2026-04-26 22:22 |
|---|---|
| Airport | João Paulo II Airport (LPPD) |
| Time | Latitude | Longitude | Altitude | Speed | Heading |
|---|---|---|---|---|---|
| 2026-04-26 17:51 | 47.45411 | 8.55946 | 1407 ft | 0 kts | 186° |
| 2026-04-26 18:04 | 47.45431 | 8.55950 | 1412 ft | 4 kts | 192° |
| 2026-04-26 18:05 | 47.45478 | 8.55945 | 1412 ft | 4 kts | 149° |
| 2026-04-26 18:05 | 47.45495 | 8.55919 | 1409 ft | 4 kts | 105° |
| 2026-04-26 18:05 | 47.45497 | 8.55907 | 1408 ft | 0 kts | 96° |
| 2026-04-26 18:07 | 47.45494 | 8.55943 | 1412 ft | 9 kts | 96° |
| 2026-04-26 18:07 | 47.45492 | 8.55978 | 1410 ft | 10 kts | 96° |
| 2026-04-26 18:08 | 47.45478 | 8.56171 | 1407 ft | 12 kts | 94° |
| 2026-04-26 18:08 | 47.45511 | 8.56276 | 1410 ft | 10 kts | 50° |
| 2026-04-26 18:08 | 47.45548 | 8.56343 | 1413 ft | 7 kts | 51° |
| 2026-04-26 18:08 | 47.45586 | 8.56412 | 1413 ft | 10 kts | 53° |
| 2026-04-26 18:09 | 47.45593 | 8.56507 | 1415 ft | 10 kts | 97° |
| 2026-04-26 18:09 | 47.45585 | 8.56607 | 1417 ft | 11 kts | 95° |
| 2026-04-26 18:09 | 47.45580 | 8.56682 | 1418 ft | 10 kts | 96° |
| 2026-04-26 18:09 | 47.45571 | 8.56814 | 1420 ft | 9 kts | 96° |
| 2026-04-26 18:10 | 47.45564 | 8.56906 | 1420 ft | 9 kts | 96° |
| 2026-04-26 18:10 | 47.45572 | 8.56995 | 1421 ft | 8 kts | 57° |
| 2026-04-26 18:10 | 47.45611 | 8.57020 | 1424 ft | 6 kts | 6° |
| 2026-04-26 18:10 | 47.45636 | 8.57024 | 1425 ft | 5 kts | 6° |
| 2026-04-26 18:11 | 47.45659 | 8.57013 | 1425 ft | 4 kts | 310° |
| 2026-04-26 18:11 | 47.45665 | 8.56978 | 1424 ft | 0 kts | 277° |
| 2026-04-26 18:11 | 47.45665 | 8.56977 | 1424 ft | 0 kts | 277° |
| 2026-04-26 18:12 | 47.45668 | 8.56937 | 1424 ft | 16 kts | 276° |
| 2026-04-26 18:12 | 47.45708 | 8.56374 | 1418 ft | 93 kts | 276° |
| 2026-04-26 18:12 | 47.45798 | 8.55104 | 1398 ft | 153 kts | 276° |
| 2026-04-26 18:13 | 47.45917 | 8.53361 | 1670 ft | 174 kts | 276° |
| 2026-04-26 18:13 | 47.46037 | 8.51607 | 2412 ft | 171 kts | 277° |
| 2026-04-26 18:13 | 47.46160 | 8.49858 | 2927 ft | 176 kts | 278° |
| 2026-04-26 18:13 | 47.46226 | 8.48617 | 3042 ft | 189 kts | 270° |
| 2026-04-26 18:14 | 47.45502 | 8.46214 | 3332 ft | 211 kts | 218° |
| 2026-04-26 18:14 | 47.44292 | 8.44799 | 3545 ft | 233 kts | 216° |
| 2026-04-26 18:14 | 47.43067 | 8.43094 | 3853 ft | 253 kts | 229° |
| 2026-04-26 18:14 | 47.41931 | 8.40966 | 4245 ft | 272 kts | 233° |
| 2026-04-26 18:15 | 47.40805 | 8.38664 | 4922 ft | 280 kts | 235° |
| 2026-04-26 18:15 | 47.39690 | 8.36287 | 5716 ft | 282 kts | 235° |
| 2026-04-26 18:15 | 47.38585 | 8.33891 | 6537 ft | 283 kts | 237° |
| 2026-04-26 18:15 | 47.37551 | 8.31395 | 7240 ft | 285 kts | 242° |
| 2026-04-26 18:16 | 47.36639 | 8.28785 | 7965 ft | 288 kts | 245° |
| 2026-04-26 18:16 | 47.34903 | 8.23467 | 9602 ft | 286 kts | 245° |
| 2026-04-26 18:16 | 47.34017 | 8.20826 | 10337 ft | 288 kts | 244° |
| 2026-04-26 18:17 | 47.33094 | 8.18134 | 10573 ft | 309 kts | 244° |
| 2026-04-26 18:17 | 47.32077 | 8.15215 | 10760 ft | 329 kts | 243° |
| 2026-04-26 18:17 | 47.31007 | 8.12191 | 11263 ft | 337 kts | 243° |
| 2026-04-26 18:17 | 47.29890 | 8.09052 | 11453 ft | 355 kts | 243° |
| 2026-04-26 18:18 | 47.28733 | 8.05815 | 11918 ft | 363 kts | 243° |
| 2026-04-26 18:18 | 47.27527 | 8.02444 | 12038 ft | 380 kts | 243° |
| 2026-04-26 18:18 | 47.26377 | 7.98855 | 12225 ft | 393 kts | 249° |
| 2026-04-26 18:18 | 47.25337 | 7.95100 | 12695 ft | 399 kts | 248° |
| 2026-04-26 18:19 | 47.24278 | 7.91313 | 13250 ft | 401 kts | 248° |
| 2026-04-26 18:19 | 47.23208 | 7.87500 | 13798 ft | 404 kts | 248° |
| 2026-04-26 18:19 | 47.22130 | 7.83665 | 14310 ft | 407 kts | 249° |
| 2026-04-26 18:19 | 47.21030 | 7.79753 | 14777 ft | 410 kts | 249° |
| 2026-04-26 18:20 | 47.19935 | 7.75866 | 15216 ft | 412 kts | 248° |
| 2026-04-26 18:20 | 47.18630 | 7.72096 | 15655 ft | 417 kts | 239° |
| 2026-04-26 18:20 | 47.16913 | 7.68640 | 16083 ft | 421 kts | 233° |
| 2026-04-26 18:20 | 47.15705 | 7.66403 | 16360 ft | 422 kts | 233° |
| 2026-04-26 18:21 | 47.13271 | 7.61899 | 16902 ft | 426 kts | 233° |
| 2026-04-26 18:21 | 47.11424 | 7.58480 | 17298 ft | 428 kts | 233° |
| 2026-04-26 18:21 | 47.09562 | 7.55042 | 17688 ft | 431 kts | 233° |
| 2026-04-26 18:21 | 47.07685 | 7.51589 | 18066 ft | 433 kts | 233° |
| 2026-04-26 18:22 | 47.05795 | 7.48117 | 18435 ft | 436 kts | 233° |
| 2026-04-26 18:22 | 47.03901 | 7.44637 | 18732 ft | 438 kts | 233° |
| 2026-04-26 18:22 | 47.01996 | 7.41130 | 19046 ft | 440 kts | 233° |
| 2026-04-26 18:22 | 47.00077 | 7.37602 | 19327 ft | 443 kts | 233° |
| 2026-04-26 18:23 | 46.98169 | 7.34113 | 19604 ft | 446 kts | 233° |
| 2026-04-26 18:23 | 46.96218 | 7.30562 | 19880 ft | 448 kts | 233° |
| 2026-04-26 18:23 | 46.94258 | 7.27001 | 20153 ft | 450 kts | 233° |
| 2026-04-26 18:23 | 46.92292 | 7.23419 | 20424 ft | 452 kts | 233° |
| 2026-04-26 18:24 | 46.90323 | 7.19829 | 20684 ft | 454 kts | 233° |
| 2026-04-26 18:24 | 46.88343 | 7.16223 | 20947 ft | 455 kts | 233° |
| 2026-04-26 18:24 | 46.86355 | 7.12599 | 21208 ft | 457 kts | 233° |
| 2026-04-26 18:24 | 46.84362 | 7.08973 | 21459 ft | 459 kts | 233° |
| 2026-04-26 18:25 | 46.82358 | 7.05334 | 21703 ft | 461 kts | 233° |
| 2026-04-26 18:25 | 46.80336 | 7.01676 | 21949 ft | 463 kts | 233° |
| 2026-04-26 18:25 | 46.78310 | 6.98017 | 22169 ft | 464 kts | 233° |
| 2026-04-26 18:25 | 46.76302 | 6.94393 | 22393 ft | 466 kts | 233° |
| 2026-04-26 18:26 | 46.74258 | 6.90706 | 22582 ft | 468 kts | 233° |
| 2026-04-26 18:26 | 46.72205 | 6.87002 | 22792 ft | 470 kts | 233° |
| 2026-04-26 18:26 | 46.70143 | 6.83289 | 23003 ft | 472 kts | 233° |
| 2026-04-26 18:26 | 46.68071 | 6.79567 | 23187 ft | 473 kts | 232° |
| 2026-04-26 18:27 | 46.66014 | 6.75813 | 23369 ft | 474 kts | 236° |
| 2026-04-26 18:27 | 46.64255 | 6.71835 | 23545 ft | 474 kts | 240° |
| 2026-04-26 18:27 | 46.62549 | 6.67720 | 23716 ft | 475 kts | 240° |
| 2026-04-26 18:27 | 46.60837 | 6.63610 | 23908 ft | 475 kts | 240° |
| 2026-04-26 18:28 | 46.59123 | 6.59511 | 24139 ft | 474 kts | 240° |
| 2026-04-26 18:28 | 46.57410 | 6.55422 | 24359 ft | 473 kts | 240° |
| 2026-04-26 18:28 | 46.55698 | 6.51340 | 24567 ft | 473 kts | 240° |
| 2026-04-26 18:28 | 46.53984 | 6.47267 | 24782 ft | 472 kts | 240° |
| 2026-04-26 18:29 | 46.52271 | 6.43196 | 24996 ft | 472 kts | 240° |
| 2026-04-26 18:29 | 46.50562 | 6.39138 | 25212 ft | 471 kts | 240° |
| 2026-04-26 18:29 | 46.48854 | 6.35084 | 25440 ft | 470 kts | 240° |
| 2026-04-26 18:29 | 46.47148 | 6.31034 | 25667 ft | 470 kts | 240° |
| 2026-04-26 18:30 | 46.45443 | 6.26995 | 25895 ft | 469 kts | 240° |
| 2026-04-26 18:30 | 46.43756 | 6.23010 | 26117 ft | 469 kts | 240° |
| 2026-04-26 18:30 | 46.42052 | 6.18987 | 26339 ft | 468 kts | 240° |
| 2026-04-26 18:30 | 46.40344 | 6.14965 | 26544 ft | 468 kts | 240° |
| 2026-04-26 18:31 | 46.38632 | 6.10941 | 26765 ft | 469 kts | 240° |
| 2026-04-26 18:31 | 46.36923 | 6.06921 | 26972 ft | 469 kts | 240° |
| 2026-04-26 18:31 | 46.35214 | 6.02903 | 27201 ft | 469 kts | 240° |
| 2026-04-26 18:31 | 46.33499 | 5.98880 | 27422 ft | 469 kts | 240° |
| 2026-04-26 18:32 | 46.31779 | 5.94863 | 27653 ft | 469 kts | 240° |
| 2026-04-26 18:32 | 46.30060 | 5.90856 | 27897 ft | 469 kts | 240° |
| 2026-04-26 18:32 | 46.28335 | 5.86850 | 28150 ft | 469 kts | 240° |
| 2026-04-26 18:32 | 46.26611 | 5.82847 | 28420 ft | 468 kts | 240° |
| 2026-04-26 18:33 | 46.24892 | 5.78855 | 28678 ft | 468 kts | 240° |
| 2026-04-26 18:33 | 46.23199 | 5.74915 | 28925 ft | 467 kts | 240° |
| 2026-04-26 18:33 | 46.21483 | 5.70932 | 29169 ft | 467 kts | 240° |
| 2026-04-26 18:33 | 46.19763 | 5.66948 | 29412 ft | 467 kts | 240° |
| 2026-04-26 18:34 | 46.18044 | 5.62970 | 29654 ft | 467 kts | 240° |
| 2026-04-26 18:34 | 46.16325 | 5.58999 | 29918 ft | 466 kts | 240° |
| 2026-04-26 18:34 | 46.14603 | 5.55031 | 30156 ft | 467 kts | 240° |
| 2026-04-26 18:34 | 46.12828 | 5.51105 | 30355 ft | 468 kts | 239° |
| 2026-04-26 18:35 | 46.10992 | 5.47232 | 30562 ft | 468 kts | 238° |
| 2026-04-26 18:35 | 46.09119 | 5.43393 | 30777 ft | 468 kts | 237° |
| 2026-04-26 18:35 | 46.07233 | 5.39566 | 30990 ft | 467 kts | 237° |
| 2026-04-26 18:35 | 46.05355 | 5.35746 | 31209 ft | 467 kts | 237° |
| 2026-04-26 18:36 | 46.03513 | 5.31970 | 31408 ft | 466 kts | 238° |
| 2026-04-26 18:36 | 46.01659 | 5.28136 | 31602 ft | 466 kts | 238° |
| 2026-04-26 18:36 | 45.99809 | 5.24299 | 31803 ft | 466 kts | 238° |
| 2026-04-26 18:36 | 45.97962 | 5.20474 | 32019 ft | 466 kts | 238° |
| 2026-04-26 18:37 | 45.96112 | 5.16647 | 32236 ft | 465 kts | 238° |
| 2026-04-26 18:37 | 45.94266 | 5.12832 | 32441 ft | 465 kts | 238° |
| 2026-04-26 18:37 | 45.92417 | 5.09012 | 32637 ft | 465 kts | 238° |
| 2026-04-26 18:37 | 45.90565 | 5.05193 | 32839 ft | 465 kts | 238° |
| 2026-04-26 18:38 | 45.88734 | 5.01435 | 33044 ft | 465 kts | 238° |
| 2026-04-26 18:38 | 45.86882 | 4.97645 | 33262 ft | 464 kts | 238° |
| 2026-04-26 18:38 | 45.85026 | 4.93856 | 33458 ft | 464 kts | 237° |
| 2026-04-26 18:38 | 45.83171 | 4.90066 | 33644 ft | 464 kts | 237° |
| 2026-04-26 18:39 | 45.81315 | 4.86271 | 33840 ft | 464 kts | 238° |
| 2026-04-26 18:39 | 45.79461 | 4.82485 | 34045 ft | 464 kts | 238° |
| 2026-04-26 18:39 | 45.77609 | 4.78707 | 34233 ft | 463 kts | 238° |
| 2026-04-26 18:39 | 45.75754 | 4.74930 | 34415 ft | 463 kts | 237° |
| 2026-04-26 18:40 | 45.73901 | 4.71168 | 34605 ft | 462 kts | 237° |
| 2026-04-26 18:40 | 45.72045 | 4.67410 | 34802 ft | 461 kts | 237° |
| 2026-04-26 18:40 | 45.70192 | 4.63664 | 34996 ft | 460 kts | 237° |
| 2026-04-26 18:40 | 45.68346 | 4.59932 | 35134 ft | 460 kts | 237° |
| 2026-04-26 18:41 | 45.64660 | 4.52459 | 35165 ft | 466 kts | 237° |
| 2026-04-26 18:41 | 45.60900 | 4.44882 | 35166 ft | 469 kts | 237° |
| 2026-04-26 18:42 | 45.57117 | 4.37279 | 35166 ft | 469 kts | 237° |
| 2026-04-26 18:42 | 45.53329 | 4.29686 | 35166 ft | 469 kts | 237° |
| 2026-04-26 18:43 | 45.49531 | 4.22100 | 35163 ft | 469 kts | 237° |
| 2026-04-26 18:43 | 45.45752 | 4.14568 | 35167 ft | 470 kts | 237° |
| 2026-04-26 18:44 | 45.41947 | 4.06993 | 35170 ft | 470 kts | 237° |
| 2026-04-26 18:44 | 45.38131 | 3.99440 | 35173 ft | 470 kts | 237° |
| 2026-04-26 18:45 | 45.34298 | 3.91900 | 35189 ft | 470 kts | 237° |
| 2026-04-26 18:45 | 45.30465 | 3.84356 | 35181 ft | 470 kts | 237° |
| 2026-04-26 18:46 | 45.26657 | 3.76856 | 35191 ft | 470 kts | 237° |
| 2026-04-26 18:46 | 45.22860 | 3.69296 | 35178 ft | 470 kts | 238° |
| 2026-04-26 18:47 | 45.19128 | 3.61673 | 35174 ft | 470 kts | 238° |
| 2026-04-26 18:47 | 45.15405 | 3.54067 | 35172 ft | 470 kts | 238° |
| 2026-04-26 18:48 | 45.11660 | 3.46476 | 35173 ft | 470 kts | 238° |
| 2026-04-26 18:48 | 45.07924 | 3.38948 | 35172 ft | 470 kts | 237° |
| 2026-04-26 18:49 | 45.04148 | 3.31382 | 35176 ft | 471 kts | 237° |
| 2026-04-26 18:49 | 45.00359 | 3.23820 | 35179 ft | 471 kts | 237° |
| 2026-04-26 18:50 | 44.96573 | 3.16254 | 35183 ft | 471 kts | 237° |
| 2026-04-26 18:50 | 44.92793 | 3.08709 | 35182 ft | 471 kts | 237° |
| 2026-04-26 18:51 | 44.89007 | 3.01177 | 35172 ft | 470 kts | 237° |
| 2026-04-26 18:51 | 44.85234 | 2.93713 | 35176 ft | 470 kts | 237° |
| 2026-04-26 18:52 | 44.81549 | 2.86110 | 35186 ft | 468 kts | 240° |
| 2026-04-26 18:52 | 44.78062 | 2.78371 | 35176 ft | 468 kts | 240° |
| 2026-04-26 18:53 | 44.74577 | 2.70630 | 35177 ft | 468 kts | 240° |
| 2026-04-26 18:53 | 44.71034 | 2.62944 | 35166 ft | 468 kts | 239° |
| 2026-04-26 18:54 | 44.67481 | 2.55342 | 35178 ft | 467 kts | 239° |
| 2026-04-26 18:54 | 44.63917 | 2.47714 | 35177 ft | 467 kts | 239° |
| 2026-04-26 18:55 | 44.60355 | 2.40079 | 35178 ft | 467 kts | 239° |
| 2026-04-26 18:55 | 44.56815 | 2.32507 | 35174 ft | 467 kts | 239° |
| 2026-04-26 18:56 | 44.53248 | 2.24899 | 35165 ft | 466 kts | 239° |
| 2026-04-26 18:56 | 44.49669 | 2.17307 | 35179 ft | 466 kts | 239° |
| 2026-04-26 18:57 | 44.47279 | 2.12241 | 35176 ft | 466 kts | 239° |
| 2026-04-26 18:57 | 44.42536 | 2.02224 | 35168 ft | 465 kts | 239° |
| 2026-04-26 18:58 | 44.38957 | 1.94676 | 35153 ft | 465 kts | 239° |
| 2026-04-26 18:58 | 44.35373 | 1.87145 | 35147 ft | 465 kts | 239° |
| 2026-04-26 18:59 | 44.31784 | 1.79624 | 35149 ft | 465 kts | 238° |
| 2026-04-26 18:59 | 44.28202 | 1.72104 | 35157 ft | 464 kts | 239° |
| 2026-04-26 19:00 | 44.24738 | 1.64568 | 35152 ft | 464 kts | 240° |
| 2026-04-26 19:00 | 44.21289 | 1.56966 | 35141 ft | 463 kts | 240° |
| 2026-04-26 19:01 | 44.18406 | 1.50663 | 35141 ft | 463 kts | 239° |
| 2026-04-26 19:01 | 44.14917 | 1.43126 | 35138 ft | 463 kts | 239° |
| 2026-04-26 19:02 | 44.11421 | 1.35604 | 35141 ft | 462 kts | 239° |
| 2026-04-26 19:02 | 44.08519 | 1.29357 | 35140 ft | 462 kts | 239° |
| 2026-04-26 19:03 | 44.04453 | 1.20640 | 35133 ft | 462 kts | 239° |
| 2026-04-26 19:03 | 44.00934 | 1.13104 | 35122 ft | 462 kts | 239° |
| 2026-04-26 19:04 | 43.97449 | 1.05668 | 35133 ft | 462 kts | 239° |
| 2026-04-26 19:04 | 43.93935 | 0.98193 | 35138 ft | 462 kts | 238° |
| 2026-04-26 19:05 | 43.88660 | 0.86999 | 35139 ft | 462 kts | 239° |
| 2026-04-26 19:06 | 43.85289 | 0.79431 | 35143 ft | 461 kts | 241° |
| 2026-04-26 19:06 | 43.82080 | 0.71797 | 35145 ft | 461 kts | 241° |
| 2026-04-26 19:07 | 43.78846 | 0.64146 | 35147 ft | 461 kts | 241° |
| 2026-04-26 19:07 | 43.75563 | 0.56531 | 35152 ft | 461 kts | 240° |
| 2026-04-26 19:08 | 43.72262 | 0.48934 | 35161 ft | 461 kts | 240° |
| 2026-04-26 19:08 | 43.68954 | 0.41342 | 35164 ft | 461 kts | 240° |
| 2026-04-26 19:09 | 43.65641 | 0.33768 | 35163 ft | 460 kts | 240° |
| 2026-04-26 19:09 | 43.62326 | 0.26194 | 35169 ft | 460 kts | 240° |
| 2026-04-26 19:10 | 43.59041 | 0.18689 | 35170 ft | 460 kts | 240° |
| 2026-04-26 19:10 | 43.55720 | 0.11140 | 35169 ft | 460 kts | 240° |
| 2026-04-26 19:11 | 43.52394 | 0.03596 | 35174 ft | 460 kts | 240° |
| 2026-04-26 19:11 | 43.49071 | -0.03941 | 35174 ft | 460 kts | 239° |
| 2026-04-26 19:12 | 43.45765 | -0.11414 | 35180 ft | 459 kts | 239° |
| 2026-04-26 19:12 | 43.42433 | -0.18909 | 35182 ft | 459 kts | 239° |
| 2026-04-26 19:13 | 43.39082 | -0.26410 | 35179 ft | 459 kts | 239° |
| 2026-04-26 19:13 | 43.35739 | -0.33901 | 35176 ft | 459 kts | 239° |
| 2026-04-26 19:14 | 43.32402 | -0.41378 | 35176 ft | 459 kts | 239° |
| 2026-04-26 19:14 | 43.29046 | -0.48858 | 35175 ft | 459 kts | 239° |
| 2026-04-26 19:15 | 43.25708 | -0.56268 | 35178 ft | 459 kts | 239° |
| 2026-04-26 19:15 | 43.22347 | -0.63719 | 35175 ft | 459 kts | 239° |
| 2026-04-26 19:16 | 43.18979 | -0.71174 | 35177 ft | 459 kts | 239° |
| 2026-04-26 19:16 | 43.15604 | -0.78620 | 35179 ft | 460 kts | 239° |
| 2026-04-26 19:17 | 43.12228 | -0.86050 | 35180 ft | 459 kts | 239° |
| 2026-04-26 19:17 | 43.08849 | -0.93465 | 35177 ft | 459 kts | 239° |
| 2026-04-26 19:18 | 43.05475 | -1.00837 | 35180 ft | 459 kts | 239° |
| 2026-04-26 19:18 | 43.02087 | -1.08242 | 35179 ft | 459 kts | 239° |
| 2026-04-26 19:19 | 42.98689 | -1.15644 | 35165 ft | 460 kts | 239° |
| 2026-04-26 19:19 | 42.95287 | -1.23043 | 35161 ft | 460 kts | 239° |
| 2026-04-26 19:20 | 42.91875 | -1.30441 | 35166 ft | 460 kts | 238° |
| 2026-04-26 19:20 | 42.88482 | -1.37769 | 35157 ft | 460 kts | 239° |
| 2026-04-26 19:21 | 42.85060 | -1.45142 | 35149 ft | 460 kts | 238° |
| 2026-04-26 19:21 | 42.81635 | -1.52511 | 35148 ft | 460 kts | 238° |
| 2026-04-26 19:22 | 42.78206 | -1.59863 | 35154 ft | 459 kts | 238° |
| 2026-04-26 19:22 | 42.74780 | -1.67199 | 35155 ft | 459 kts | 240° |
| 2026-04-26 19:23 | 42.72260 | -1.75128 | 35157 ft | 456 kts | 254° |
| 2026-04-26 19:23 | 42.70412 | -1.83382 | 35152 ft | 456 kts | 254° |
| 2026-04-26 19:24 | 42.68568 | -1.91578 | 35160 ft | 456 kts | 254° |
| 2026-04-26 19:24 | 42.65763 | -2.03927 | 35145 ft | 455 kts | 253° |
| 2026-04-26 19:25 | 42.64206 | -2.10755 | 35139 ft | 455 kts | 253° |
| 2026-04-26 19:25 | 42.61984 | -2.20352 | 35132 ft | 455 kts | 253° |
| 2026-04-26 19:26 | 42.59997 | -2.28525 | 35125 ft | 455 kts | 252° |
| 2026-04-26 19:26 | 42.57988 | -2.36682 | 35124 ft | 455 kts | 252° |
| 2026-04-26 19:27 | 42.56003 | -2.44793 | 35121 ft | 456 kts | 252° |
| 2026-04-26 19:27 | 42.54007 | -2.52959 | 35132 ft | 456 kts | 252° |
| 2026-04-26 19:28 | 42.52000 | -2.61133 | 35138 ft | 456 kts | 252° |
| 2026-04-26 19:28 | 42.50001 | -2.69246 | 35156 ft | 456 kts | 252° |
| 2026-04-26 19:29 | 42.47979 | -2.77404 | 35178 ft | 455 kts | 252° |
| 2026-04-26 19:29 | 42.45953 | -2.85532 | 35178 ft | 455 kts | 252° |
| 2026-04-26 19:30 | 42.43508 | -2.93433 | 35190 ft | 455 kts | 246° |
| 2026-04-26 19:30 | 42.41301 | -2.99915 | 35184 ft | 455 kts | 246° |
| 2026-04-26 19:31 | 42.38215 | -3.08964 | 35195 ft | 455 kts | 246° |
| 2026-04-26 19:31 | 42.35565 | -3.16737 | 35187 ft | 455 kts | 246° |
| 2026-04-26 19:32 | 42.32905 | -3.24508 | 35181 ft | 455 kts | 246° |
| 2026-04-26 19:32 | 42.30248 | -3.32224 | 35185 ft | 455 kts | 246° |
| 2026-04-26 19:33 | 42.27572 | -3.39982 | 35181 ft | 456 kts | 246° |
| 2026-04-26 19:33 | 42.24891 | -3.47740 | 35180 ft | 456 kts | 245° |
| 2026-04-26 19:34 | 42.22198 | -3.55483 | 35188 ft | 456 kts | 245° |
| 2026-04-26 19:34 | 42.19505 | -3.63232 | 35191 ft | 456 kts | 245° |
| 2026-04-26 19:35 | 42.16808 | -3.70961 | 35183 ft | 455 kts | 245° |
| 2026-04-26 19:35 | 42.14128 | -3.78632 | 35180 ft | 455 kts | 245° |
| 2026-04-26 19:36 | 42.11878 | -3.85056 | 35181 ft | 455 kts | 245° |
| 2026-04-26 19:36 | 42.08711 | -3.94067 | 35175 ft | 455 kts | 245° |
| 2026-04-26 19:37 | 42.06003 | -4.01761 | 35178 ft | 455 kts | 245° |
| 2026-04-26 19:37 | 42.03300 | -4.09409 | 35175 ft | 454 kts | 245° |
| 2026-04-26 19:38 | 42.00514 | -4.17034 | 35181 ft | 454 kts | 244° |
| 2026-04-26 19:38 | 41.97613 | -4.24584 | 35177 ft | 454 kts | 243° |
| 2026-04-26 19:39 | 41.94697 | -4.32125 | 35176 ft | 454 kts | 243° |
| 2026-04-26 19:39 | 41.91824 | -4.39622 | 35182 ft | 454 kts | 244° |
| 2026-04-26 19:40 | 41.88945 | -4.47163 | 35175 ft | 454 kts | 244° |
| 2026-04-26 19:40 | 41.86057 | -4.54719 | 35174 ft | 455 kts | 243° |
| 2026-04-26 19:41 | 41.83150 | -4.62261 | 35178 ft | 455 kts | 243° |
| 2026-04-26 19:41 | 41.81217 | -4.67253 | 35186 ft | 455 kts | 243° |
| 2026-04-26 19:42 | 41.77337 | -4.77271 | 35181 ft | 455 kts | 243° |
| 2026-04-26 19:42 | 41.74426 | -4.84800 | 35183 ft | 455 kts | 243° |
| 2026-04-26 19:43 | 41.71504 | -4.92328 | 35186 ft | 455 kts | 243° |
| 2026-04-26 19:43 | 41.68566 | -4.99844 | 35184 ft | 455 kts | 243° |
| 2026-04-26 19:44 | 41.65657 | -5.07296 | 35182 ft | 454 kts | 243° |
| 2026-04-26 19:44 | 41.62720 | -5.14794 | 35183 ft | 454 kts | 243° |
| 2026-04-26 19:45 | 41.59776 | -5.22268 | 35182 ft | 454 kts | 243° |
| 2026-04-26 19:45 | 41.56830 | -5.29741 | 35177 ft | 454 kts | 243° |
| 2026-04-26 19:46 | 41.53907 | -5.37155 | 35177 ft | 454 kts | 243° |
| 2026-04-26 19:46 | 41.50963 | -5.44592 | 35176 ft | 453 kts | 243° |
| 2026-04-26 19:47 | 41.48994 | -5.49560 | 35173 ft | 453 kts | 243° |
| 2026-04-26 19:47 | 41.45068 | -5.59430 | 35165 ft | 452 kts | 243° |
| 2026-04-26 19:48 | 41.42125 | -5.66788 | 35162 ft | 452 kts | 243° |
| 2026-04-26 19:48 | 41.39165 | -5.74179 | 35161 ft | 452 kts | 243° |
| 2026-04-26 19:49 | 41.36208 | -5.81557 | 35159 ft | 451 kts | 243° |
| 2026-04-26 19:49 | 41.33252 | -5.88916 | 35160 ft | 451 kts | 243° |
| 2026-04-26 19:50 | 41.30291 | -5.96266 | 35156 ft | 450 kts | 243° |
| 2026-04-26 19:50 | 41.27327 | -6.03614 | 35151 ft | 450 kts | 243° |
| 2026-04-26 19:51 | 41.24381 | -6.10890 | 35144 ft | 450 kts | 243° |
| 2026-04-26 19:51 | 41.21409 | -6.18204 | 35147 ft | 449 kts | 242° |
| 2026-04-26 19:52 | 41.18437 | -6.25493 | 35142 ft | 448 kts | 242° |
| 2026-04-26 19:52 | 41.15980 | -6.31565 | 35132 ft | 448 kts | 243° |
| 2026-04-26 19:53 | 41.13119 | -6.38932 | 35130 ft | 448 kts | 244° |
| 2026-04-26 19:53 | 41.10308 | -6.46254 | 35117 ft | 448 kts | 244° |
| 2026-04-26 19:54 | 41.07440 | -6.53622 | 35117 ft | 449 kts | 243° |
| 2026-04-26 19:54 | 41.04552 | -6.60976 | 35109 ft | 449 kts | 243° |
| 2026-04-26 19:55 | 41.01677 | -6.68274 | 35108 ft | 450 kts | 243° |
| 2026-04-26 19:55 | 40.98773 | -6.75629 | 35106 ft | 450 kts | 243° |
| 2026-04-26 19:56 | 40.95886 | -6.82941 | 35105 ft | 450 kts | 243° |
| 2026-04-26 19:56 | 40.92986 | -6.90278 | 35112 ft | 450 kts | 243° |
| 2026-04-26 19:57 | 40.90078 | -6.97596 | 35113 ft | 449 kts | 242° |
| 2026-04-26 19:57 | 40.87169 | -7.04889 | 35119 ft | 448 kts | 242° |
| 2026-04-26 19:58 | 40.84263 | -7.12173 | 35120 ft | 448 kts | 242° |
| 2026-04-26 19:58 | 40.81354 | -7.19455 | 35122 ft | 448 kts | 242° |
| 2026-04-26 19:59 | 40.78436 | -7.26740 | 35123 ft | 448 kts | 242° |
| 2026-04-26 19:59 | 40.75538 | -7.33951 | 35130 ft | 448 kts | 242° |
| 2026-04-26 20:00 | 40.72615 | -7.41212 | 35129 ft | 448 kts | 242° |
| 2026-04-26 20:00 | 40.69694 | -7.48456 | 35122 ft | 447 kts | 242° |
| 2026-04-26 20:01 | 40.66762 | -7.55691 | 35123 ft | 447 kts | 242° |
| 2026-04-26 20:01 | 40.63842 | -7.62877 | 35114 ft | 447 kts | 242° |
| 2026-04-26 20:02 | 40.60907 | -7.70091 | 35114 ft | 447 kts | 242° |
| 2026-04-26 20:02 | 40.58440 | -7.76135 | 35113 ft | 447 kts | 242° |
| 2026-04-26 20:03 | 40.55020 | -7.84492 | 35107 ft | 447 kts | 242° |
| 2026-04-26 20:03 | 40.52069 | -7.91690 | 35101 ft | 447 kts | 242° |
| 2026-04-26 20:04 | 40.49123 | -7.98884 | 35104 ft | 447 kts | 242° |
| 2026-04-26 20:04 | 40.46168 | -8.06067 | 35099 ft | 447 kts | 242° |
| 2026-04-26 20:05 | 40.43223 | -8.13191 | 35096 ft | 447 kts | 242° |
| 2026-04-26 20:05 | 40.40252 | -8.20371 | 35093 ft | 447 kts | 242° |
| 2026-04-26 20:06 | 40.37285 | -8.27529 | 35095 ft | 447 kts | 242° |
| 2026-04-26 20:06 | 40.34309 | -8.34688 | 35090 ft | 447 kts | 242° |
| 2026-04-26 20:07 | 40.31331 | -8.41848 | 35093 ft | 447 kts | 242° |
| 2026-04-26 20:07 | 40.28366 | -8.48953 | 35092 ft | 447 kts | 242° |
| 2026-04-26 20:08 | 40.25374 | -8.56086 | 35094 ft | 447 kts | 242° |
| 2026-04-26 20:08 | 40.22375 | -8.63231 | 35092 ft | 447 kts | 242° |
| 2026-04-26 20:09 | 40.19375 | -8.70364 | 35094 ft | 447 kts | 242° |
| 2026-04-26 20:09 | 40.16375 | -8.77489 | 35090 ft | 447 kts | 242° |
| 2026-04-26 20:10 | 40.13367 | -8.84621 | 35082 ft | 447 kts | 242° |
| 2026-04-26 20:10 | 40.10374 | -8.91688 | 35096 ft | 446 kts | 242° |
| 2026-04-26 20:11 | 40.07358 | -8.98772 | 35096 ft | 446 kts | 242° |
| 2026-04-26 20:12 | 40.02845 | -9.09374 | 35098 ft | 445 kts | 242° |
| 2026-04-26 20:12 | 39.99857 | -9.16384 | 35106 ft | 444 kts | 242° |
| 2026-04-26 20:13 | 39.96846 | -9.23419 | 35105 ft | 443 kts | 242° |
| 2026-04-26 20:13 | 39.93831 | -9.30442 | 35109 ft | 443 kts | 242° |
| 2026-04-26 20:14 | 39.90701 | -9.37362 | 35111 ft | 443 kts | 239° |
| 2026-04-26 20:14 | 39.87427 | -9.44176 | 35110 ft | 444 kts | 239° |
| 2026-04-26 20:15 | 39.84165 | -9.50930 | 35114 ft | 443 kts | 239° |
| 2026-04-26 20:15 | 39.80917 | -9.57746 | 35127 ft | 442 kts | 239° |
| 2026-04-26 20:16 | 39.77691 | -9.64560 | 35129 ft | 442 kts | 239° |
| 2026-04-26 20:16 | 39.74455 | -9.71353 | 35134 ft | 442 kts | 239° |
| 2026-04-26 20:17 | 39.71209 | -9.78137 | 35134 ft | 441 kts | 239° |
| 2026-04-26 20:17 | 39.67982 | -9.84867 | 35131 ft | 441 kts | 239° |
| 2026-04-26 20:18 | 39.64736 | -9.91617 | 35131 ft | 441 kts | 239° |
| 2026-04-26 20:18 | 39.61485 | -9.98361 | 35136 ft | 440 kts | 239° |
| 2026-04-26 20:19 | 39.58240 | -10.05103 | 35129 ft | 440 kts | 239° |
| 2026-04-26 20:19 | 39.54999 | -10.11835 | 35129 ft | 440 kts | 239° |
| 2026-04-26 20:20 | 39.51765 | -10.18509 | 35134 ft | 440 kts | 239° |
| 2026-04-26 20:20 | 39.48501 | -10.25212 | 35130 ft | 440 kts | 238° |
| 2026-04-26 20:21 | 39.45237 | -10.31908 | 35138 ft | 439 kts | 238° |
| 2026-04-26 20:21 | 39.41978 | -10.38599 | 35138 ft | 439 kts | 238° |
| 2026-04-26 20:22 | 39.38720 | -10.45287 | 35140 ft | 439 kts | 238° |
| 2026-04-26 20:22 | 39.35460 | -10.51961 | 35138 ft | 439 kts | 238° |
| 2026-04-26 20:23 | 39.32185 | -10.58620 | 35138 ft | 439 kts | 238° |
| 2026-04-26 20:23 | 39.28914 | -10.65275 | 35136 ft | 439 kts | 238° |
| 2026-04-26 20:24 | 39.25649 | -10.71921 | 35133 ft | 438 kts | 238° |
| 2026-04-26 20:24 | 39.22374 | -10.78552 | 35135 ft | 438 kts | 238° |
| 2026-04-26 20:25 | 39.19110 | -10.85131 | 35138 ft | 438 kts | 238° |
| 2026-04-26 20:25 | 39.15822 | -10.91754 | 35144 ft | 438 kts | 238° |
| 2026-04-26 20:26 | 39.12539 | -10.98377 | 35139 ft | 438 kts | 238° |
| 2026-04-26 20:26 | 39.09255 | -11.04987 | 35149 ft | 438 kts | 237° |
| 2026-04-26 20:27 | 39.05958 | -11.11592 | 35144 ft | 438 kts | 237° |
| 2026-04-26 20:27 | 39.02680 | -11.18139 | 35140 ft | 438 kts | 237° |
| 2026-04-26 20:28 | 38.99377 | -11.24722 | 35147 ft | 438 kts | 237° |
| 2026-04-26 20:28 | 38.96073 | -11.31305 | 35150 ft | 438 kts | 237° |
| 2026-04-26 20:29 | 38.92765 | -11.37893 | 35134 ft | 439 kts | 237° |
| 2026-04-26 20:29 | 38.89449 | -11.44479 | 35135 ft | 439 kts | 237° |
| 2026-04-26 20:30 | 38.86159 | -11.51007 | 35147 ft | 438 kts | 237° |
| 2026-04-26 20:30 | 38.82836 | -11.57581 | 35144 ft | 439 kts | 237° |
| 2026-04-26 20:31 | 38.79508 | -11.64142 | 35141 ft | 439 kts | 237° |
| 2026-04-26 20:31 | 38.76174 | -11.70703 | 35144 ft | 439 kts | 237° |
| 2026-04-26 20:32 | 38.72832 | -11.77249 | 35154 ft | 439 kts | 236° |
| 2026-04-26 20:32 | 38.69508 | -11.83760 | 35143 ft | 439 kts | 236° |
| 2026-04-26 20:33 | 38.66170 | -11.90300 | 35144 ft | 439 kts | 236° |
| 2026-04-26 20:33 | 38.62821 | -11.96836 | 35153 ft | 439 kts | 236° |
| 2026-04-26 20:34 | 38.59472 | -12.03370 | 35158 ft | 439 kts | 236° |
| 2026-04-26 20:34 | 38.56114 | -12.09897 | 35154 ft | 439 kts | 236° |
| 2026-04-26 20:35 | 38.52750 | -12.16425 | 35148 ft | 439 kts | 236° |
| 2026-04-26 20:35 | 38.49383 | -12.22938 | 35160 ft | 439 kts | 236° |
| 2026-04-26 20:36 | 38.46037 | -12.29404 | 35157 ft | 439 kts | 235° |
| 2026-04-26 20:36 | 38.42661 | -12.35918 | 35154 ft | 440 kts | 235° |
| 2026-04-26 20:37 | 38.39280 | -12.42429 | 35155 ft | 441 kts | 235° |
| 2026-04-26 20:37 | 38.35885 | -12.48941 | 35160 ft | 441 kts | 235° |
| 2026-04-26 20:38 | 38.32497 | -12.55444 | 35160 ft | 441 kts | 235° |
| 2026-04-26 20:38 | 38.29105 | -12.61957 | 35156 ft | 441 kts | 235° |
| 2026-04-26 20:39 | 38.25724 | -12.68423 | 35161 ft | 441 kts | 235° |
| 2026-04-26 20:39 | 38.22304 | -12.74920 | 35161 ft | 441 kts | 235° |
| 2026-04-26 20:40 | 38.18888 | -12.81405 | 35166 ft | 441 kts | 234° |
| 2026-04-26 20:40 | 38.15473 | -12.87909 | 35152 ft | 443 kts | 234° |
| 2026-04-26 20:41 | 38.12066 | -12.94376 | 35153 ft | 444 kts | 234° |
| 2026-04-26 20:41 | 38.08618 | -13.00890 | 35155 ft | 444 kts | 234° |
| 2026-04-26 20:42 | 38.05162 | -13.07406 | 35164 ft | 445 kts | 234° |
| 2026-04-26 20:42 | 38.02286 | -13.12827 | 35164 ft | 445 kts | 234° |
| 2026-04-26 20:43 | 37.98822 | -13.19340 | 35172 ft | 445 kts | 234° |
| 2026-04-26 20:43 | 37.95354 | -13.25851 | 35176 ft | 445 kts | 234° |
| 2026-04-26 20:44 | 37.91885 | -13.32362 | 35175 ft | 445 kts | 233° |
| 2026-04-26 20:44 | 37.88401 | -13.38851 | 35181 ft | 445 kts | 233° |
| 2026-04-26 20:45 | 37.84939 | -13.45300 | 35173 ft | 446 kts | 234° |
| 2026-04-26 20:45 | 37.81455 | -13.51805 | 35175 ft | 447 kts | 234° |
| 2026-04-26 20:46 | 37.77957 | -13.58312 | 35173 ft | 448 kts | 233° |
| 2026-04-26 20:46 | 37.74447 | -13.64825 | 35176 ft | 448 kts | 233° |
| 2026-04-26 20:47 | 37.70929 | -13.71333 | 35178 ft | 449 kts | 234° |
| 2026-04-26 20:47 | 37.67396 | -13.77847 | 35179 ft | 449 kts | 233° |
| 2026-04-26 20:48 | 37.63891 | -13.84323 | 35181 ft | 449 kts | 233° |
| 2026-04-26 20:48 | 37.60363 | -13.90834 | 35192 ft | 449 kts | 233° |
| 2026-04-26 20:49 | 37.56817 | -13.97328 | 35195 ft | 449 kts | 233° |
| 2026-04-26 20:49 | 37.53268 | -14.03812 | 35193 ft | 449 kts | 233° |
| 2026-04-26 20:50 | 37.49752 | -14.10266 | 35197 ft | 449 kts | 233° |
| 2026-04-26 20:50 | 37.46205 | -14.16764 | 35193 ft | 449 kts | 233° |
| 2026-04-26 20:51 | 37.42652 | -14.23236 | 35206 ft | 449 kts | 233° |
| 2026-04-26 20:51 | 37.39085 | -14.29709 | 35200 ft | 450 kts | 233° |
| 2026-04-26 20:52 | 37.35517 | -14.36182 | 35201 ft | 450 kts | 233° |
| 2026-04-26 20:52 | 37.31953 | -14.42650 | 35200 ft | 451 kts | 233° |
| 2026-04-26 20:53 | 37.28395 | -14.49082 | 35204 ft | 451 kts | 233° |
| 2026-04-26 20:53 | 37.24803 | -14.55544 | 35207 ft | 452 kts | 233° |
| 2026-04-26 20:54 | 37.21207 | -14.62024 | 35202 ft | 453 kts | 233° |
| 2026-04-26 20:54 | 37.17601 | -14.68516 | 35195 ft | 453 kts | 232° |
| 2026-04-26 20:55 | 37.13982 | -14.75010 | 35194 ft | 454 kts | 233° |
| 2026-04-26 20:55 | 37.10361 | -14.81504 | 35199 ft | 455 kts | 233° |
| 2026-04-26 20:56 | 37.06750 | -14.87962 | 35202 ft | 454 kts | 233° |
| 2026-04-26 20:56 | 37.03115 | -14.94443 | 35215 ft | 454 kts | 233° |
| 2026-04-26 20:57 | 36.99995 | -15.01328 | 35201 ft | 458 kts | 247° |
| 2026-04-26 20:57 | 36.98384 | -15.09075 | 35199 ft | 461 kts | 255° |
| 2026-04-26 20:58 | 36.96995 | -15.16919 | 35189 ft | 463 kts | 255° |
| 2026-04-26 20:58 | 36.95596 | -15.24740 | 35184 ft | 464 kts | 255° |
| 2026-04-26 20:59 | 36.94182 | -15.32626 | 35188 ft | 465 kts | 255° |
| 2026-04-26 20:59 | 36.92759 | -15.40518 | 35204 ft | 466 kts | 255° |
| 2026-04-26 21:00 | 36.91328 | -15.48418 | 35212 ft | 466 kts | 255° |
| 2026-04-26 21:00 | 36.89888 | -15.56335 | 35219 ft | 467 kts | 255° |
| 2026-04-26 21:01 | 36.88451 | -15.64245 | 35232 ft | 467 kts | 255° |
| 2026-04-26 21:01 | 36.87009 | -15.72149 | 35233 ft | 466 kts | 255° |
| 2026-04-26 21:02 | 36.85573 | -15.79984 | 35229 ft | 466 kts | 255° |
| 2026-04-26 21:02 | 36.84116 | -15.87864 | 35229 ft | 465 kts | 255° |
| 2026-04-26 21:03 | 36.82657 | -15.95733 | 35231 ft | 465 kts | 255° |
| 2026-04-26 21:03 | 36.81193 | -16.03608 | 35232 ft | 465 kts | 255° |
| 2026-04-26 21:04 | 36.79733 | -16.11466 | 35236 ft | 464 kts | 255° |
| 2026-04-26 21:04 | 36.78268 | -16.19259 | 35235 ft | 464 kts | 256° |
| 2026-04-26 21:05 | 36.76790 | -16.27102 | 35233 ft | 464 kts | 256° |
| 2026-04-26 21:05 | 36.75317 | -16.34928 | 35239 ft | 463 kts | 255° |
| 2026-04-26 21:06 | 36.73834 | -16.42762 | 35236 ft | 463 kts | 256° |
| 2026-04-26 21:06 | 36.72346 | -16.50575 | 35232 ft | 463 kts | 255° |
| 2026-04-26 21:07 | 36.70857 | -16.58328 | 35233 ft | 463 kts | 255° |
| 2026-04-26 21:07 | 36.69359 | -16.66127 | 35226 ft | 462 kts | 255° |
| 2026-04-26 21:08 | 36.67861 | -16.73924 | 35222 ft | 462 kts | 255° |
| 2026-04-26 21:08 | 36.66356 | -16.81724 | 35228 ft | 462 kts | 255° |
| 2026-04-26 21:09 | 36.64847 | -16.89519 | 35225 ft | 462 kts | 256° |
| 2026-04-26 21:09 | 36.63344 | -16.97259 | 35216 ft | 462 kts | 255° |
| 2026-04-26 21:10 | 36.61822 | -17.05039 | 35232 ft | 462 kts | 255° |
| 2026-04-26 21:10 | 36.60292 | -17.12819 | 35219 ft | 463 kts | 255° |
| 2026-04-26 21:11 | 36.58769 | -17.20551 | 35223 ft | 463 kts | 255° |
| 2026-04-26 21:11 | 36.57233 | -17.28346 | 35222 ft | 463 kts | 255° |
| 2026-04-26 21:12 | 36.55692 | -17.36126 | 35218 ft | 463 kts | 255° |
| 2026-04-26 21:12 | 36.54144 | -17.43907 | 35216 ft | 463 kts | 255° |
| 2026-04-26 21:13 | 36.52585 | -17.51687 | 35222 ft | 463 kts | 255° |
| 2026-04-26 21:13 | 36.51032 | -17.59465 | 35220 ft | 464 kts | 255° |
| 2026-04-26 21:14 | 36.49479 | -17.67199 | 35227 ft | 464 kts | 255° |
| 2026-04-26 21:14 | 36.47906 | -17.74975 | 35235 ft | 464 kts | 255° |
| 2026-04-26 21:15 | 36.46332 | -17.82746 | 35234 ft | 464 kts | 255° |
| 2026-04-26 21:15 | 36.44756 | -17.90525 | 35235 ft | 464 kts | 255° |
| 2026-04-26 21:16 | 36.43165 | -17.98306 | 35234 ft | 464 kts | 255° |
| 2026-04-26 21:16 | 36.41568 | -18.06073 | 35237 ft | 464 kts | 255° |
| 2026-04-26 21:17 | 36.39966 | -18.13842 | 35239 ft | 464 kts | 255° |
| 2026-04-26 21:17 | 36.38371 | -18.21566 | 35242 ft | 465 kts | 255° |
| 2026-04-26 21:18 | 36.36763 | -18.29344 | 35242 ft | 465 kts | 255° |
| 2026-04-26 21:18 | 36.35158 | -18.37106 | 35253 ft | 465 kts | 255° |
| 2026-04-26 21:19 | 36.33534 | -18.44879 | 35251 ft | 465 kts | 255° |
| 2026-04-26 21:19 | 36.31911 | -18.52633 | 35248 ft | 465 kts | 255° |
| 2026-04-26 21:20 | 36.30300 | -18.60352 | 35251 ft | 465 kts | 255° |
| 2026-04-26 21:20 | 36.28660 | -18.68113 | 35252 ft | 465 kts | 255° |
| 2026-04-26 21:21 | 36.27013 | -18.75872 | 35258 ft | 465 kts | 255° |
| 2026-04-26 21:21 | 36.25368 | -18.83623 | 35263 ft | 465 kts | 255° |
| 2026-04-26 21:22 | 36.23722 | -18.91383 | 35262 ft | 465 kts | 255° |
| 2026-04-26 21:22 | 36.22065 | -18.99129 | 35253 ft | 465 kts | 255° |
| 2026-04-26 21:23 | 36.19576 | -19.10697 | 35261 ft | 465 kts | 255° |
| 2026-04-26 21:23 | 36.17908 | -19.18439 | 35264 ft | 464 kts | 255° |
| 2026-04-26 21:24 | 36.16241 | -19.26165 | 35266 ft | 464 kts | 255° |
| 2026-04-26 21:24 | 36.14583 | -19.33823 | 35257 ft | 463 kts | 255° |
| 2026-04-26 21:25 | 36.12910 | -19.41532 | 35265 ft | 463 kts | 255° |
| 2026-04-26 21:25 | 36.11233 | -19.49224 | 35267 ft | 463 kts | 255° |
| 2026-04-26 21:26 | 36.09543 | -19.56897 | 35270 ft | 462 kts | 255° |
| 2026-04-26 21:26 | 36.07856 | -19.64560 | 35271 ft | 462 kts | 255° |
| 2026-04-26 21:27 | 36.06161 | -19.72225 | 35269 ft | 462 kts | 255° |
| 2026-04-26 21:27 | 36.04481 | -19.79836 | 35268 ft | 462 kts | 255° |
| 2026-04-26 21:28 | 36.02790 | -19.87485 | 35270 ft | 461 kts | 255° |
| 2026-04-26 21:28 | 36.01707 | -19.95257 | 35267 ft | 459 kts | 271° |
| 2026-04-26 21:29 | 36.02846 | -20.02959 | 35264 ft | 457 kts | 292° |
| 2026-04-26 21:29 | 36.06094 | -20.09668 | 35262 ft | 456 kts | 308° |
| 2026-04-26 21:30 | 36.09980 | -20.15817 | 35258 ft | 456 kts | 308° |
| 2026-04-26 21:30 | 36.13238 | -20.21015 | 35257 ft | 457 kts | 308° |
| 2026-04-26 21:31 | 36.17760 | -20.28239 | 35265 ft | 456 kts | 308° |
| 2026-04-26 21:31 | 36.21655 | -20.34462 | 35264 ft | 456 kts | 308° |
| 2026-04-26 21:32 | 36.24884 | -20.39637 | 35272 ft | 456 kts | 308° |
| 2026-04-26 21:32 | 36.28763 | -20.45861 | 35267 ft | 456 kts | 308° |
| 2026-04-26 21:33 | 36.32636 | -20.52085 | 35271 ft | 455 kts | 308° |
| 2026-04-26 21:33 | 36.36499 | -20.58307 | 35270 ft | 455 kts | 308° |
| 2026-04-26 21:34 | 36.40362 | -20.64530 | 35269 ft | 455 kts | 308° |
| 2026-04-26 21:34 | 36.44204 | -20.70731 | 35258 ft | 456 kts | 308° |
| 2026-04-26 21:35 | 36.48073 | -20.76981 | 35267 ft | 456 kts | 308° |
| 2026-04-26 21:35 | 36.51940 | -20.83238 | 35267 ft | 455 kts | 308° |
| 2026-04-26 21:36 | 36.55793 | -20.89496 | 35271 ft | 455 kts | 308° |
| 2026-04-26 21:36 | 36.59635 | -20.95759 | 35279 ft | 455 kts | 308° |
| 2026-04-26 21:37 | 36.63473 | -21.02020 | 35276 ft | 455 kts | 308° |
| 2026-04-26 21:37 | 36.67289 | -21.08239 | 35275 ft | 454 kts | 308° |
| 2026-04-26 21:38 | 36.71118 | -21.14515 | 35268 ft | 454 kts | 308° |
| 2026-04-26 21:38 | 36.74945 | -21.20778 | 35281 ft | 453 kts | 308° |
| 2026-04-26 21:39 | 36.78761 | -21.27037 | 35284 ft | 452 kts | 307° |
| 2026-04-26 21:39 | 36.82564 | -21.33293 | 35284 ft | 452 kts | 308° |
| 2026-04-26 21:40 | 36.86338 | -21.39502 | 35282 ft | 452 kts | 307° |
| 2026-04-26 21:40 | 36.90125 | -21.45762 | 35280 ft | 451 kts | 307° |
| 2026-04-26 21:41 | 36.93907 | -21.52027 | 35280 ft | 451 kts | 307° |
| 2026-04-26 21:41 | 36.97671 | -21.58287 | 35284 ft | 450 kts | 307° |
| 2026-04-26 21:42 | 37.01440 | -21.64535 | 35284 ft | 449 kts | 307° |
| 2026-04-26 21:42 | 37.05206 | -21.70778 | 35282 ft | 449 kts | 307° |
| 2026-04-26 21:43 | 37.08932 | -21.76983 | 35281 ft | 449 kts | 307° |
| 2026-04-26 21:43 | 37.12680 | -21.83247 | 35276 ft | 448 kts | 308° |
| 2026-04-26 21:44 | 37.16402 | -21.89497 | 35283 ft | 447 kts | 308° |
| 2026-04-26 21:44 | 37.20123 | -21.95736 | 35288 ft | 446 kts | 308° |
| 2026-04-26 21:45 | 37.23835 | -22.01967 | 35289 ft | 445 kts | 308° |
| 2026-04-26 21:45 | 37.27541 | -22.08194 | 35286 ft | 445 kts | 308° |
| 2026-04-26 21:46 | 37.31215 | -22.14389 | 35278 ft | 445 kts | 307° |
| 2026-04-26 21:46 | 37.34919 | -22.20631 | 35277 ft | 445 kts | 307° |
| 2026-04-26 21:47 | 37.38612 | -22.26874 | 35275 ft | 445 kts | 307° |
| 2026-04-26 21:47 | 37.42298 | -22.33126 | 35273 ft | 445 kts | 307° |
| 2026-04-26 21:48 | 37.45985 | -22.39389 | 35268 ft | 445 kts | 307° |
| 2026-04-26 21:48 | 37.49645 | -22.45622 | 35266 ft | 445 kts | 307° |
| 2026-04-26 21:49 | 37.53316 | -22.51880 | 35275 ft | 443 kts | 308° |
| 2026-04-26 21:49 | 37.56977 | -22.58120 | 35292 ft | 442 kts | 308° |
| 2026-04-26 21:50 | 37.60009 | -22.63303 | 35289 ft | 441 kts | 308° |
| 2026-04-26 21:50 | 37.64258 | -22.70595 | 35289 ft | 441 kts | 308° |
| 2026-04-26 21:51 | 37.67891 | -22.76836 | 35283 ft | 441 kts | 308° |
| 2026-04-26 21:51 | 37.71495 | -22.83031 | 35285 ft | 439 kts | 308° |
| 2026-04-26 21:52 | 37.75101 | -22.89241 | 35294 ft | 438 kts | 308° |
| 2026-04-26 21:52 | 37.78687 | -22.95450 | 35291 ft | 437 kts | 308° |
| 2026-04-26 21:53 | 37.82265 | -23.01649 | 35288 ft | 436 kts | 308° |
| 2026-04-26 21:53 | 37.85845 | -23.07850 | 35284 ft | 436 kts | 308° |
| 2026-04-26 21:54 | 37.89400 | -23.14017 | 35270 ft | 435 kts | 308° |
| 2026-04-26 21:54 | 37.92763 | -23.20390 | 35279 ft | 437 kts | 298° |
| 2026-04-26 21:55 | 37.94497 | -23.27802 | 35277 ft | 445 kts | 279° |
| 2026-04-26 21:55 | 37.94461 | -23.35618 | 35270 ft | 432 kts | 271° |
| 2026-04-26 21:56 | 37.94215 | -23.43081 | 35258 ft | 424 kts | 272° |
| 2026-04-26 21:56 | 37.93974 | -23.50513 | 35271 ft | 420 kts | 272° |
| 2026-04-26 21:57 | 37.93749 | -23.57903 | 35205 ft | 419 kts | 272° |
| 2026-04-26 21:57 | 37.93635 | -23.61591 | 34855 ft | 418 kts | 272° |
| 2026-04-26 21:57 | 37.93513 | -23.65257 | 34436 ft | 414 kts | 272° |
| 2026-04-26 21:58 | 37.93388 | -23.68895 | 34006 ft | 412 kts | 272° |
| 2026-04-26 21:58 | 37.93262 | -23.72467 | 33590 ft | 410 kts | 271° |
| 2026-04-26 21:58 | 37.93132 | -23.76071 | 33173 ft | 408 kts | 271° |
| 2026-04-26 21:58 | 37.93004 | -23.79650 | 32781 ft | 405 kts | 271° |
| 2026-04-26 21:59 | 37.92879 | -23.83214 | 32387 ft | 403 kts | 271° |
| 2026-04-26 21:59 | 37.92755 | -23.86760 | 32011 ft | 402 kts | 271° |
| 2026-04-26 21:59 | 37.92631 | -23.90288 | 31635 ft | 400 kts | 271° |
| 2026-04-26 21:59 | 37.92507 | -23.93802 | 31264 ft | 399 kts | 271° |
| 2026-04-26 22:00 | 37.92383 | -23.97314 | 30897 ft | 397 kts | 271° |
| 2026-04-26 22:00 | 37.92258 | -24.00803 | 30536 ft | 396 kts | 271° |
| 2026-04-26 22:00 | 37.92133 | -24.04275 | 30150 ft | 395 kts | 271° |
| 2026-04-26 22:00 | 37.92006 | -24.07696 | 29718 ft | 393 kts | 271° |
| 2026-04-26 22:01 | 37.91875 | -24.11135 | 29305 ft | 391 kts | 270° |
| 2026-04-26 22:01 | 37.91744 | -24.14578 | 28867 ft | 389 kts | 270° |
| 2026-04-26 22:01 | 37.91612 | -24.17995 | 28456 ft | 387 kts | 270° |
| 2026-04-26 22:01 | 37.91482 | -24.21394 | 28057 ft | 385 kts | 270° |
| 2026-04-26 22:02 | 37.91355 | -24.24780 | 27669 ft | 383 kts | 270° |
| 2026-04-26 22:02 | 37.91272 | -24.27008 | 27410 ft | 382 kts | 270° |
| 2026-04-26 22:02 | 37.91099 | -24.31497 | 26899 ft | 380 kts | 270° |
| 2026-04-26 22:02 | 37.90967 | -24.34837 | 26523 ft | 378 kts | 269° |
| 2026-04-26 22:03 | 37.90837 | -24.38107 | 26150 ft | 376 kts | 269° |
| 2026-04-26 22:03 | 37.90704 | -24.41414 | 25782 ft | 375 kts | 270° |
| 2026-04-26 22:03 | 37.90572 | -24.44708 | 25423 ft | 373 kts | 270° |
| 2026-04-26 22:03 | 37.90442 | -24.47983 | 25067 ft | 372 kts | 269° |
| 2026-04-26 22:04 | 37.90309 | -24.51252 | 24715 ft | 371 kts | 269° |
| 2026-04-26 22:04 | 37.90176 | -24.54508 | 24370 ft | 369 kts | 269° |
| 2026-04-26 22:04 | 37.90042 | -24.57752 | 24028 ft | 368 kts | 269° |
| 2026-04-26 22:04 | 37.89908 | -24.60984 | 23654 ft | 367 kts | 269° |
| 2026-04-26 22:05 | 37.89774 | -24.64204 | 23213 ft | 366 kts | 269° |
| 2026-04-26 22:05 | 37.89644 | -24.67369 | 22763 ft | 363 kts | 269° |
| 2026-04-26 22:05 | 37.89510 | -24.70554 | 22333 ft | 360 kts | 269° |
| 2026-04-26 22:05 | 37.89374 | -24.73710 | 21926 ft | 357 kts | 268° |
| 2026-04-26 22:06 | 37.89239 | -24.76825 | 21276 ft | 352 kts | 268° |
| 2026-04-26 22:06 | 37.89106 | -24.79910 | 20537 ft | 349 kts | 268° |
| 2026-04-26 22:06 | 37.89139 | -24.82966 | 19820 ft | 345 kts | 275° |
| 2026-04-26 22:06 | 37.89308 | -24.85998 | 19119 ft | 344 kts | 274° |
| 2026-04-26 22:07 | 37.89471 | -24.89010 | 18464 ft | 344 kts | 274° |
| 2026-04-26 22:07 | 37.89629 | -24.91985 | 18062 ft | 342 kts | 274° |
| 2026-04-26 22:07 | 37.89787 | -24.94984 | 17667 ft | 340 kts | 274° |
| 2026-04-26 22:07 | 37.89894 | -24.96999 | 17403 ft | 339 kts | 274° |
| 2026-04-26 22:08 | 37.90098 | -25.00931 | 16884 ft | 337 kts | 274° |
| 2026-04-26 22:08 | 37.90249 | -25.03882 | 16517 ft | 335 kts | 273° |
| 2026-04-26 22:08 | 37.90398 | -25.06822 | 16126 ft | 334 kts | 273° |
| 2026-04-26 22:08 | 37.90546 | -25.09759 | 15706 ft | 334 kts | 273° |
| 2026-04-26 22:09 | 37.90696 | -25.12683 | 15375 ft | 330 kts | 273° |
| 2026-04-26 22:09 | 37.90845 | -25.15568 | 14778 ft | 327 kts | 273° |
| 2026-04-26 22:09 | 37.90990 | -25.18388 | 14259 ft | 326 kts | 273° |
| 2026-04-26 22:09 | 37.91136 | -25.21239 | 13937 ft | 323 kts | 273° |
| 2026-04-26 22:10 | 37.91282 | -25.24078 | 13557 ft | 322 kts | 273° |
| 2026-04-26 22:10 | 37.91424 | -25.26900 | 13220 ft | 319 kts | 272° |
| 2026-04-26 22:10 | 37.91565 | -25.29701 | 12852 ft | 318 kts | 272° |
| 2026-04-26 22:10 | 37.91702 | -25.32490 | 12508 ft | 315 kts | 272° |
| 2026-04-26 22:11 | 37.91836 | -25.35256 | 12178 ft | 313 kts | 272° |
| 2026-04-26 22:11 | 37.91969 | -25.37963 | 11831 ft | 311 kts | 272° |
| 2026-04-26 22:11 | 37.92100 | -25.40682 | 11497 ft | 308 kts | 272° |
| 2026-04-26 22:11 | 37.92230 | -25.43383 | 11172 ft | 305 kts | 272° |
| 2026-04-26 22:12 | 37.92358 | -25.46061 | 10812 ft | 304 kts | 271° |
| 2026-04-26 22:12 | 37.92483 | -25.48717 | 10524 ft | 300 kts | 271° |
| 2026-04-26 22:12 | 37.92607 | -25.51337 | 10155 ft | 295 kts | 271° |
| 2026-04-26 22:12 | 37.92730 | -25.53922 | 9472 ft | 292 kts | 271° |
| 2026-04-26 22:13 | 37.92853 | -25.56489 | 8968 ft | 291 kts | 271° |
| 2026-04-26 22:13 | 37.92974 | -25.59040 | 8618 ft | 288 kts | 271° |
| 2026-04-26 22:13 | 37.93081 | -25.61530 | 8248 ft | 286 kts | 270° |
| 2026-04-26 22:13 | 37.93092 | -25.64031 | 7884 ft | 283 kts | 267° |
| 2026-04-26 22:14 | 37.93041 | -25.66516 | 7499 ft | 281 kts | 266° |
| 2026-04-26 22:14 | 37.92967 | -25.68966 | 6954 ft | 276 kts | 265° |
| 2026-04-26 22:14 | 37.92895 | -25.71389 | 6259 ft | 274 kts | 265° |
| 2026-04-26 22:14 | 37.92837 | -25.73781 | 5709 ft | 266 kts | 265° |
| 2026-04-26 22:15 | 37.92789 | -25.76048 | 5441 ft | 252 kts | 265° |
| 2026-04-26 22:15 | 37.92745 | -25.78247 | 5141 ft | 247 kts | 266° |
| 2026-04-26 22:15 | 37.92674 | -25.80383 | 4767 ft | 245 kts | 259° |
| 2026-04-26 22:15 | 37.92260 | -25.82452 | 4383 ft | 240 kts | 246° |
| 2026-04-26 22:16 | 37.91511 | -25.84306 | 4128 ft | 232 kts | 234° |
| 2026-04-26 22:16 | 37.90526 | -25.85851 | 3969 ft | 220 kts | 222° |
| 2026-04-26 22:16 | 37.89374 | -25.87063 | 3758 ft | 212 kts | 211° |
| 2026-04-26 22:16 | 37.88092 | -25.87932 | 3516 ft | 207 kts | 201° |
| 2026-04-26 22:17 | 37.86741 | -25.88461 | 3295 ft | 202 kts | 191° |
| 2026-04-26 22:17 | 37.85326 | -25.88675 | 2834 ft | 206 kts | 180° |
| 2026-04-26 22:17 | 37.83929 | -25.88526 | 2543 ft | 202 kts | 169° |
| 2026-04-26 22:17 | 37.82609 | -25.88068 | 2436 ft | 192 kts | 160° |
| 2026-04-26 22:18 | 37.81439 | -25.87349 | 2461 ft | 184 kts | 150° |
| 2026-04-26 22:18 | 37.80417 | -25.86433 | 2410 ft | 175 kts | 141° |
| 2026-04-26 22:18 | 37.79581 | -25.85396 | 2351 ft | 163 kts | 133° |
| 2026-04-26 22:18 | 37.78917 | -25.84277 | 2257 ft | 155 kts | 126° |
| 2026-04-26 22:19 | 37.78414 | -25.83114 | 2172 ft | 147 kts | 117° |
| 2026-04-26 22:19 | 37.78045 | -25.81941 | 2047 ft | 141 kts | 115° |
| 2026-04-26 22:19 | 37.77686 | -25.80805 | 1825 ft | 136 kts | 116° |
| 2026-04-26 22:19 | 37.77342 | -25.79728 | 1757 ft | 134 kts | 115° |
| 2026-04-26 22:20 | 37.77000 | -25.78643 | 1550 ft | 132 kts | 116° |
| 2026-04-26 22:20 | 37.76772 | -25.77914 | 1431 ft | 132 kts | 115° |
| 2026-04-26 22:20 | 37.76325 | -25.76499 | 1170 ft | 129 kts | 113° |
| 2026-04-26 22:20 | 37.75992 | -25.75451 | 1032 ft | 127 kts | 112° |
| 2026-04-26 22:21 | 37.75674 | -25.74410 | 903 ft | 129 kts | 110° |
| 2026-04-26 22:21 | 37.75329 | -25.73352 | 733 ft | 131 kts | 113° |
| 2026-04-26 22:21 | 37.74994 | -25.72287 | 520 ft | 130 kts | 110° |
| 2026-04-26 22:21 | 37.74670 | -25.71252 | 320 ft | 121 kts | 111° |
| 2026-04-26 22:22 | 37.74374 | -25.70338 | 254 ft | 100 kts | 110° |
| 2026-04-26 22:22 | 37.74219 | -25.69828 | 234 ft | 19 kts | 112° |
| 2026-04-26 22:22 | 37.74209 | -25.69799 | 233 ft | 4 kts | 112° |
| 2026-04-26 22:22 | 37.74192 | -25.69745 | 231 ft | 17 kts | 112° |
| 2026-04-26 22:23 | 37.74126 | -25.69537 | 222 ft | 30 kts | 111° |
| 2026-04-26 22:23 | 37.74021 | -25.69201 | 210 ft | 32 kts | 111° |
| 2026-04-26 22:23 | 37.73935 | -25.68928 | 197 ft | 35 kts | 111° |
| 2026-04-26 22:23 | 37.73884 | -25.68765 | 195 ft | 22 kts | 111° |
| 2026-04-26 22:24 | 37.73826 | -25.68580 | 192 ft | 20 kts | 111° |
| 2026-04-26 22:24 | 37.73777 | -25.68457 | 191 ft | 14 kts | 173° |
| 2026-04-26 22:24 | 37.73761 | -25.68523 | 196 ft | 9 kts | 315° |
| 2026-04-26 22:24 | 37.73831 | -25.68608 | 191 ft | 23 kts | 302° |
| 2026-04-26 22:25 | 37.73912 | -25.68857 | 195 ft | 36 kts | 291° |
| 2026-04-26 22:25 | 37.74002 | -25.69140 | 208 ft | 33 kts | 291° |
| 2026-04-26 22:25 | 37.74085 | -25.69404 | 218 ft | 31 kts | 292° |
| 2026-04-26 22:25 | 37.74165 | -25.69651 | 228 ft | 29 kts | 292° |
| 2026-04-26 22:26 | 37.74240 | -25.69883 | 235 ft | 29 kts | 292° |
| 2026-04-26 22:26 | 37.74312 | -25.70110 | 242 ft | 26 kts | 292° |
| 2026-04-26 22:26 | 37.74409 | -25.70276 | 251 ft | 21 kts | 320° |
| 2026-04-26 22:26 | 37.74503 | -25.70372 | 260 ft | 14 kts | 321° |
| 2026-04-26 22:27 | 37.74566 | -25.70437 | 267 ft | 14 kts | 317° |
| 2026-04-26 22:27 | 37.74633 | -25.70573 | 272 ft | 19 kts | 292° |
| 2026-04-26 22:27 | 37.74682 | -25.70725 | 272 ft | 18 kts | 292° |
| 2026-04-26 22:27 | 37.74726 | -25.70867 | 276 ft | 17 kts | 291° |
| 2026-04-26 22:28 | 37.74767 | -25.70997 | 272 ft | 15 kts | 292° |
| 2026-04-26 22:28 | 37.74804 | -25.71113 | 272 ft | 11 kts | 292° |
| 2026-04-26 22:28 | 37.74843 | -25.71134 | 272 ft | 7 kts | 27° |
| 2026-04-26 22:28 | 37.74872 | -25.71119 | 272 ft | 3 kts | 23° |
| 2026-04-26 22:29 | 37.74879 | -25.71114 | 272 ft | 0 kts | 22° |